createdAt,value
2018-08-04T00:00:48.862Z,22.20
2018-08-04T00:03:17.410Z,22.20
2018-08-04T00:05:45.747Z,22.20
2018-08-04T00:08:14.118Z,22.20
2018-08-04T00:10:42.546Z,22.20
2018-08-04T00:13:10.885Z,22.10
2018-08-04T00:15:39.249Z,22.00
2018-08-04T00:18:07.593Z,22.00
2018-08-04T00:20:35.934Z,22.00
2018-08-04T00:23:04.280Z,22.00
2018-08-04T00:25:32.635Z,21.90
2018-08-04T00:28:00.979Z,21.90
2018-08-04T00:30:29.306Z,21.90
2018-08-04T00:32:57.663Z,21.90
2018-08-04T00:35:25.966Z,21.90
2018-08-04T00:37:54.394Z,21.90
2018-08-04T00:40:22.764Z,21.90
2018-08-04T00:42:51.179Z,21.90
2018-08-04T00:45:19.552Z,21.90
2018-08-04T00:47:47.871Z,21.80
2018-08-04T00:50:16.306Z,21.80
2018-08-04T00:55:12.818Z,21.70
2018-08-04T00:57:41.125Z,21.70
2018-08-04T01:00:09.512Z,21.80
2018-08-04T01:02:37.910Z,21.80
2018-08-04T01:05:06.272Z,21.80
2018-08-04T01:10:04.462Z,21.80
2018-08-04T01:12:33.047Z,21.70
2018-08-04T01:15:01.835Z,21.70
2018-08-04T01:17:30.746Z,21.70
2018-08-04T01:20:05.994Z,21.60
2018-08-04T01:22:36.006Z,21.60
2018-08-04T01:25:05.307Z,21.60
2018-08-04T01:27:33.734Z,21.50
2018-08-04T01:30:02.103Z,21.60
2018-08-04T01:32:30.449Z,21.50
2018-08-04T01:34:58.847Z,21.50
2018-08-04T01:37:27.339Z,21.40
2018-08-04T01:39:55.722Z,21.50
2018-08-04T01:42:24.071Z,21.50
2018-08-04T01:44:52.451Z,21.40
2018-08-04T01:47:20.844Z,21.40
2018-08-04T01:49:49.329Z,21.50
2018-08-04T01:52:17.714Z,21.50
2018-08-04T01:54:46.097Z,21.40
2018-08-04T01:57:14.438Z,21.20
2018-08-04T01:59:42.816Z,21.20
2018-08-04T02:02:11.193Z,21.10
2018-08-04T02:04:39.614Z,21.10
2018-08-04T02:07:07.963Z,21.00
2018-08-04T02:09:36.326Z,20.90
2018-08-04T02:12:04.678Z,20.90
2018-08-04T02:14:33.146Z,20.80
2018-08-04T02:17:01.522Z,20.80
2018-08-04T02:19:29.912Z,20.70
2018-08-04T02:21:58.307Z,20.70
2018-08-04T02:24:26.624Z,20.60
2018-08-04T02:26:54.990Z,20.60
2018-08-04T02:29:23.377Z,20.60
2018-08-04T02:31:51.798Z,20.60
2018-08-04T02:34:20.182Z,20.70
2018-08-04T02:36:48.520Z,20.70
2018-08-04T02:39:16.886Z,20.70
2018-08-04T02:41:45.266Z,20.60
2018-08-04T02:44:13.590Z,20.60
2018-08-04T02:46:41.951Z,20.60
2018-08-04T02:49:10.312Z,20.70
2018-08-04T02:51:38.673Z,20.90
2018-08-04T02:54:07.031Z,20.90
2018-08-04T02:56:35.390Z,20.80
2018-08-04T02:59:03.731Z,20.80
2018-08-04T03:01:32.120Z,20.70
2018-08-04T03:04:00.466Z,20.60
2018-08-04T03:06:29.074Z,20.60
2018-08-04T03:08:57.451Z,20.50
2018-08-04T03:11:25.897Z,20.40
2018-08-04T03:13:54.278Z,20.30
2018-08-04T03:16:22.595Z,20.30
2018-08-04T03:18:50.968Z,20.20
2018-08-04T03:21:19.419Z,20.20
2018-08-04T03:23:47.774Z,20.20
2018-08-04T03:26:16.167Z,20.20
2018-08-04T03:28:44.554Z,20.20
2018-08-04T03:31:12.928Z,20.20
2018-08-04T03:33:41.282Z,20.20
2018-08-04T03:36:09.629Z,20.20
2018-08-04T03:38:38.045Z,20.20
2018-08-04T03:41:06.386Z,20.20
2018-08-04T03:43:34.711Z,20.20
2018-08-04T03:46:03.059Z,20.10
2018-08-04T03:48:31.370Z,20.10
2018-08-04T03:50:59.744Z,20.10
2018-08-04T03:53:28.159Z,20.10
2018-08-04T03:55:56.512Z,20.10
2018-08-04T03:58:24.916Z,20.10
2018-08-04T04:00:53.403Z,20.10
2018-08-04T04:03:21.768Z,20.10
2018-08-04T04:05:50.133Z,20.00
2018-08-04T04:08:18.483Z,20.00
2018-08-04T04:10:46.886Z,19.90
2018-08-04T04:13:15.230Z,19.90
2018-08-04T04:15:43.586Z,19.90
2018-08-04T04:20:40.023Z,19.80
2018-08-04T04:23:08.439Z,19.80
2018-08-04T04:25:36.822Z,19.80
2018-08-04T04:28:05.230Z,19.80
2018-08-04T04:30:33.904Z,19.90
2018-08-04T04:33:02.223Z,19.90
2018-08-04T04:35:30.566Z,19.90
2018-08-04T04:37:59.019Z,19.90
2018-08-04T04:40:27.398Z,19.90
2018-08-04T04:42:55.713Z,20.00
2018-08-04T04:45:24.216Z,20.00
2018-08-04T04:47:52.613Z,20.00
2018-08-04T04:50:21.024Z,20.20
2018-08-04T04:52:49.420Z,20.30
2018-08-04T04:55:17.790Z,20.30
2018-08-04T04:57:46.099Z,20.30
2018-08-04T05:00:14.492Z,20.30
2018-08-04T05:02:43.143Z,20.30
2018-08-04T05:05:11.525Z,20.30
2018-08-04T05:07:39.898Z,20.40
2018-08-04T05:10:08.709Z,20.50
2018-08-04T05:12:37.059Z,20.90
2018-08-04T05:15:06.250Z,21.00
2018-08-04T05:17:34.641Z,21.00
2018-08-04T05:20:03.331Z,21.00
2018-08-04T05:22:31.774Z,21.10
2018-08-04T05:25:00.136Z,21.20
2018-08-04T05:27:28.512Z,21.20
2018-08-04T05:29:56.908Z,21.20
2018-08-04T05:32:25.263Z,21.30
2018-08-04T05:37:21.811Z,21.40
2018-08-04T05:39:50.150Z,21.50
2018-08-04T05:42:18.526Z,21.60
2018-08-04T05:44:46.928Z,21.60
2018-08-04T05:47:16.014Z,21.70
2018-08-04T05:49:44.331Z,21.70
2018-08-04T05:52:12.665Z,21.80
2018-08-04T05:54:41.063Z,21.80
2018-08-04T05:57:09.427Z,21.90
2018-08-04T05:59:37.785Z,21.90
2018-08-04T06:02:06.161Z,21.90
2018-08-04T06:04:34.615Z,22.00
2018-08-04T06:07:02.962Z,22.10
2018-08-04T06:09:31.588Z,22.10
2018-08-04T06:11:59.953Z,22.10
2018-08-04T06:14:28.561Z,22.10
2018-08-04T06:16:56.872Z,22.10
2018-08-04T06:19:25.283Z,22.20
2018-08-04T06:21:53.580Z,22.20
2018-08-04T06:24:21.961Z,22.30
2018-08-04T06:26:50.374Z,22.30
2018-08-04T06:29:18.823Z,22.30
2018-08-04T06:31:47.194Z,22.40
2018-08-04T06:34:15.580Z,22.40
2018-08-04T06:36:43.997Z,22.50
2018-08-04T06:39:12.399Z,22.50
2018-08-04T06:44:08.909Z,22.70
2018-08-04T06:46:37.734Z,22.80
2018-08-04T06:49:06.146Z,22.90
2018-08-04T06:51:34.478Z,22.90
2018-08-04T06:54:02.970Z,22.90
2018-08-04T06:56:31.287Z,23.00
2018-08-04T06:58:59.639Z,23.00
2018-08-04T07:03:56.189Z,23.20
2018-08-04T07:08:52.664Z,23.30
2018-08-04T07:11:21.037Z,23.30
2018-08-04T07:13:49.426Z,23.40
2018-08-04T07:16:17.779Z,23.40
2018-08-04T07:18:46.271Z,23.40
2018-08-04T07:21:14.627Z,23.50
2018-08-04T07:23:43.016Z,23.50
2018-08-04T07:26:11.419Z,23.60
2018-08-04T07:28:39.855Z,23.70
2018-08-04T07:31:08.311Z,23.80
2018-08-04T07:33:36.723Z,23.90
2018-08-04T07:36:05.035Z,23.90
2018-08-04T07:38:33.484Z,23.90
2018-08-04T07:41:01.821Z,24.00
2018-08-04T07:43:30.210Z,24.10
2018-08-04T07:45:58.568Z,24.20
2018-08-04T07:48:26.902Z,24.20
2018-08-04T07:50:55.887Z,24.30
2018-08-04T07:53:24.292Z,24.40
2018-08-04T07:55:52.683Z,24.40
2018-08-04T07:58:21.027Z,24.40
2018-08-04T08:00:49.363Z,24.40
2018-08-04T08:03:17.783Z,24.60
2018-08-04T08:05:46.136Z,24.60
2018-08-04T08:08:14.505Z,24.60
2018-08-04T08:10:43.020Z,24.70
2018-08-04T08:13:11.309Z,24.90
2018-08-04T08:15:39.707Z,24.90
2018-08-04T08:18:08.024Z,24.90
2018-08-04T08:20:36.459Z,25.00
2018-08-04T08:25:32.927Z,24.90
2018-08-04T08:28:01.286Z,25.00
2018-08-04T08:30:30.050Z,24.90
2018-08-04T08:32:58.478Z,25.00
2018-08-04T08:35:26.845Z,25.00
2018-08-04T08:37:55.284Z,25.10
2018-08-04T08:40:23.629Z,25.10
2018-08-04T08:42:51.972Z,25.10
2018-08-04T08:45:25.759Z,25.10
2018-08-04T08:47:54.135Z,25.20
2018-08-04T08:50:22.432Z,25.20
2018-08-04T08:52:50.782Z,25.30
2018-08-04T08:55:19.102Z,25.30
2018-08-04T09:00:16.369Z,25.40
2018-08-04T09:05:12.782Z,25.50
2018-08-04T09:07:41.114Z,25.60
2018-08-04T09:10:13.051Z,25.70
2018-08-04T09:12:41.913Z,25.90
2018-08-04T09:15:10.257Z,26.00
2018-08-04T09:17:38.605Z,25.90
2018-08-04T09:20:07.835Z,26.10
2018-08-04T09:22:36.236Z,26.10
2018-08-04T09:25:05.701Z,26.00
2018-08-04T09:27:34.277Z,26.00
2018-08-04T09:30:02.663Z,26.00
2018-08-04T09:32:31.030Z,25.90
2018-08-04T09:34:59.731Z,25.90
2018-08-04T09:37:28.091Z,26.00
2018-08-04T09:42:24.575Z,26.20
2018-08-04T09:44:52.939Z,26.30
2018-08-04T09:47:21.261Z,26.30
2018-08-04T09:49:49.555Z,26.30
2018-08-04T09:52:18.051Z,26.40
2018-08-04T09:54:46.363Z,26.30
2018-08-04T09:57:14.706Z,26.50
2018-08-04T09:59:43.131Z,26.60
2018-08-04T10:02:12.522Z,26.70
2018-08-04T10:04:41.894Z,26.70
2018-08-04T10:07:10.740Z,26.80
2018-08-04T10:09:39.069Z,26.80
2018-08-04T10:12:07.446Z,26.80
2018-08-04T10:14:35.782Z,26.70
2018-08-04T10:17:10.039Z,26.60
2018-08-04T10:19:38.601Z,26.50
2018-08-04T10:22:06.955Z,26.50
2018-08-04T10:24:35.342Z,26.30
2018-08-04T10:27:03.697Z,26.20
2018-08-04T10:29:32.094Z,26.20
2018-08-04T10:32:00.445Z,26.10
2018-08-04T10:34:28.755Z,25.80
2018-08-04T10:36:57.093Z,26.00
2018-08-04T10:39:25.443Z,26.00
2018-08-04T10:41:53.820Z,26.30
2018-08-04T10:44:22.119Z,26.30
2018-08-04T10:49:18.902Z,26.40
2018-08-04T10:51:48.239Z,26.50
2018-08-04T10:54:16.820Z,26.40
2018-08-04T10:56:45.128Z,26.40
2018-08-04T10:59:13.472Z,26.40
2018-08-04T11:01:41.824Z,26.60
2018-08-04T11:04:10.510Z,26.60
2018-08-04T11:06:39.110Z,26.40
